Time;durP1;ratioP1;P1;durP2;ratioP2;P2;SDS_P1;SDS_P2;PMS_P1;PMS_P2;Temp;Humidity;BMP_temperature;BMP_pressure;BME280_temperature;BME280_humidity;BME280_pressure;Samples;Min_cycle;Max_cycle;Signal;HPM_P1;HPM_P2
2022/02/14 00:00:40;;;;;;;18.08;8.05;;;;;;;8.05;41.15;101358.91;4956724;29;20058;-78
2022/02/14 00:03:26;;;;;;;20.27;10.20;;;;;;;8.18;41.15;101360.19;4960370;29;20073;-78
2022/02/14 00:06:11;;;;;;;;;;;;;;;8.19;40.81;101354.47;4957097;29;20047;-79
2022/02/14 00:08:55;;;;;;;16.38;9.30;;;;;;;8.19;42.08;101349.03;4958360;28;19915;-79
2022/02/14 00:11:40;;;;;;;15.67;9.10;;;;;;;8.12;41.46;101348.56;4960120;28;20448;-79
2022/02/14 00:14:26;;;;;;;12.18;7.07;;;;;;;8.12;41.03;101333.13;4960932;28;20141;-78
2022/02/14 00:17:11;;;;;;;13.88;8.05;;;;;;;8.15;41.38;101326.31;4960878;28;20062;-79
2022/02/14 00:19:56;;;;;;;11.07;7.25;;;;;;;8.25;41.73;101331.66;4960064;29;20058;-79
2022/02/14 00:22:41;;;;;;;13.30;8.48;;;;;;;8.31;41.63;101327.03;4960243;28;20050;-79
2022/02/14 00:25:26;;;;;;;15.82;7.50;;;;;;;8.14;41.50;101322.00;4960149;28;20687;-80
2022/02/14 00:28:11;;;;;;;13.20;7.15;;;;;;;8.12;41.81;101306.03;4956560;28;20050;-79
2022/02/14 00:30:56;;;;;;;13.05;7.78;;;;;;;8.13;41.18;101302.22;4950316;29;20232;-78
2022/02/14 00:33:40;;;;;;;15.45;8.82;;;;;;;8.17;41.33;101305.19;4950636;28;20050;-78
2022/02/14 00:36:27;;;;;;;14.48;9.60;;;;;;;8.21;41.97;101295.38;4949454;29;20050;-79
2022/02/14 00:39:12;;;;;;;14.98;9.40;;;;;;;7.96;42.08;101298.31;4959935;28;20511;-80
2022/02/14 00:41:57;;;;;;;12.50;7.20;;;;;;;8.01;42.95;101299.09;4960057;28;20054;-79
2022/02/14 00:44:42;;;;;;;20.13;9.98;;;;;;;8.00;43.02;101299.38;4959144;29;20050;-79
2022/02/14 00:47:27;;;;;;;19.08;9.18;;;;;;;7.98;42.08;101306.94;4961079;28;20054;-79
2022/02/14 00:50:12;;;;;;;16.15;7.72;;;;;;;7.91;43.15;101303.78;4959814;28;20062;-80
2022/02/14 00:52:57;;;;;;;16.85;7.15;;;;;;;7.74;43.97;101310.38;4959387;28;20058;-80
2022/02/14 00:55:42;;;;;;;11.77;7.45;;;;;;;7.83;42.95;101302.47;4959488;29;20047;-80
2022/02/14 00:58:28;;;;;;;10.90;7.03;;;;;;;7.84;42.41;101300.56;4961647;28;20058;-79
2022/02/14 01:01:13;;;;;;;14.98;9.65;;;;;;;7.74;42.85;101301.47;4959627;28;20054;-79
2022/02/14 01:03:58;;;;;;;18.00;10.10;;;;;;;7.63;42.52;101305.31;4962228;28;20050;-79
2022/02/14 01:06:43;;;;;;;12.80;7.68;;;;;;;7.38;42.25;101295.47;4961432;28;20035;-79
2022/02/14 01:09:28;;;;;;;12.52;8.20;;;;;;;7.36;42.97;101302.25;4959428;29;20042;-79
2022/02/14 01:12:12;;;;;;;15.35;9.18;;;;;;;7.41;42.82;101291.41;4959437;28;20050;-80
2022/02/14 01:14:57;;;;;;;11.15;8.35;;;;;;;7.23;42.47;101285.53;4960133;28;20058;-79
2022/02/14 01:17:41;;;;;;;14.27;9.00;;;;;;;7.15;43.21;101286.13;4959187;28;20054;-77
2022/02/14 01:20:29;;;;;;;10.13;6.95;;;;;;;6.99;43.50;101278.38;4962845;28;20054;-79
2022/02/14 01:23:14;;;;;;;14.65;9.57;;;;;;;6.90;43.77;101278.13;4959304;29;20054;-78
2022/02/14 01:25:59;;;;;;;13.00;7.53;;;;;;;6.71;43.90;101282.50;4958830;29;20132;-79
2022/02/14 01:28:44;;;;;;;10.40;6.45;;;;;;;6.64;44.18;101279.31;4959325;29;20448;-78
2022/02/14 01:31:29;;;;;;;13.88;7.10;;;;;;;6.81;44.42;101268.97;4958755;28;20046;-78
2022/02/14 01:34:14;;;;;;;19.45;8.40;;;;;;;6.69;44.40;101271.19;4959658;28;20050;-78
2022/02/14 01:36:59;;;;;;;11.15;7.38;;;;;;;6.76;44.28;101271.69;4958764;29;20058;-78
2022/02/14 01:39:44;;;;;;;13.50;6.65;;;;;;;6.89;43.69;101271.09;4959303;28;20128;-78
2022/02/14 01:42:29;;;;;;;14.05;8.38;;;;;;;6.96;43.58;101260.78;4958939;28;20054;-78
2022/02/14 01:45:14;;;;;;;12.07;6.68;;;;;;;6.82;43.15;101259.78;4957796;29;20412;-78
2022/02/14 01:47:59;;;;;;;12.82;6.65;;;;;;;6.76;43.53;101258.97;4958702;28;20062;-78
2022/02/14 01:50:46;;;;;;;16.35;6.35;;;;;;;6.71;44.45;101250.09;4958159;29;20054;-78
2022/02/14 01:53:31;;;;;;;11.88;8.25;;;;;;;6.68;43.35;101254.16;4957368;28;20426;-79
2022/02/14 01:56:15;;;;;;;9.70;6.75;;;;;;;6.61;44.59;101248.22;4958467;28;20050;-78
2022/02/14 01:59:00;;;;;;;12.10;7.68;;;;;;;6.62;44.08;101243.63;4958338;29;20050;-78
2022/02/14 02:01:45;;;;;;;11.93;7.28;;;;;;;6.60;43.97;101232.31;4957624;28;20420;-77
2022/02/14 02:04:29;;;;;;;12.73;6.77;;;;;;;6.57;43.74;101241.75;4939074;29;20050;-79
2022/02/14 02:07:15;;;;;;;10.48;6.93;;;;;;;6.32;44.00;101234.53;4939005;29;20388;-78
2022/02/14 02:10:00;;;;;;;22.88;8.75;;;;;;;6.19;45.30;101239.72;4938668;29;20547;-78
2022/02/14 02:12:54;;;;;;;14.07;7.53;;;;;;;6.41;45.24;101245.59;4950553;29;20054;-79
2022/02/14 02:15:39;;;;;;;11.50;7.82;;;;;;;6.46;44.88;101250.97;4958375;28;20047;-79
2022/02/14 02:18:24;;;;;;;8.27;5.55;;;;;;;6.50;44.99;101240.44;4955046;28;20074;-79
2022/02/14 02:21:08;;;;;;;14.60;8.37;;;;;;;6.57;43.75;101236.34;4956745;29;20519;-79
2022/02/14 02:23:57;;;;;;;10.68;6.30;;;;;;;6.64;43.33;101231.47;4956611;28;20046;-77
2022/02/14 02:26:41;;;;;;;11.75;7.97;;;;;;;6.39;44.49;101237.78;4956433;28;20416;-79
2022/02/14 02:29:27;;;;;;;11.30;7.25;;;;;;;6.43;43.72;101235.31;4961310;28;20520;-79
2022/02/14 02:32:13;;;;;;;11.73;7.80;;;;;;;6.33;43.75;101228.06;4958973;28;20054;-77
2022/02/14 02:35:01;;;;;;;13.32;7.15;;;;;;;6.28;43.89;101217.28;4956071;29;20042;-77
2022/02/14 02:37:45;;;;;;;21.17;8.07;;;;;;;6.19;45.02;101226.22;4954270;29;20050;-77
2022/02/14 02:40:30;;;;;;;8.80;5.93;;;;;;;6.10;44.62;101233.22;4954566;28;20047;-77
2022/02/14 02:43:17;;;;;;;17.48;7.63;;;;;;;6.09;46.26;101223.53;4954345;28;20428;-76
2022/02/14 02:46:01;;;;;;;13.55;7.85;;;;;;;5.96;45.65;101214.91;4954238;28;20058;-76
2022/02/14 02:48:46;;;;;;;16.13;6.50;;;;;;;6.04;46.78;101213.56;4954374;29;20058;-77
2022/02/14 02:51:31;;;;;;;17.53;8.33;;;;;;;5.98;47.27;101217.34;4954519;28;20058;-77
2022/02/14 02:54:17;;;;;;;10.73;6.10;;;;;;;5.98;47.00;101206.53;4935012;29;20051;-77
2022/02/14 02:57:03;;;;;;;20.25;7.95;;;;;;;5.98;47.01;101203.84;4935224;29;20515;-76
2022/02/14 02:59:47;;;;;;;12.55;8.18;;;;;;;6.10;46.16;101217.03;4937785;29;20055;-76
2022/02/14 03:02:32;;;;;;;8.93;5.45;;;;;;;6.06;44.49;101213.25;4954143;29;20412;-76
2022/02/14 03:05:17;;;;;;;9.35;6.10;;;;;;;6.17;44.26;101198.66;4956113;28;20436;-77
2022/02/14 03:08:02;;;;;;;8.27;6.22;;;;;;;6.23;44.16;101201.09;4954108;29;20136;-77
2022/02/14 03:10:46;;;;;;;11.68;5.43;;;;;;;5.90;45.08;101197.09;4954103;29;20058;-77
2022/02/14 03:13:31;;;;;;;9.67;6.53;;;;;;;6.00;45.08;101191.69;4953761;29;20420;-77
2022/02/14 03:16:16;;;;;;;9.30;5.93;;;;;;;6.13;43.84;101184.09;4954614;28;20278;-77
2022/02/14 03:19:02;;;;;;;10.90;7.28;;;;;;;6.09;44.21;101186.56;4953704;28;20054;-77
2022/02/14 03:21:46;;;;;;;10.18;5.60;;;;;;;5.95;44.14;101180.06;4954061;28;20050;-76
2022/02/14 03:24:32;;;;;;;10.45;5.60;;;;;;;5.89;44.88;101178.50;4952687;29;20062;-77
2022/02/14 03:27:16;;;;;;;13.15;6.70;;;;;;;5.95;44.33;101174.69;4953257;29;20050;-76
2022/02/14 03:30:01;;;;;;;13.27;8.30;;;;;;;5.74;46.09;101184.66;4953748;29;20523;-77
2022/02/14 03:32:46;;;;;;;9.45;6.20;;;;;;;5.98;44.82;101171.44;4953756;28;20511;-77
2022/02/14 03:35:31;;;;;;;11.07;6.30;;;;;;;6.05;45.70;101173.84;4953369;28;20416;-77
2022/02/14 03:38:16;;;;;;;9.38;5.15;;;;;;;6.11;44.41;101167.34;4953593;29;20132;-77
2022/02/14 03:41:00;;;;;;;14.85;5.97;;;;;;;5.97;45.35;101165.25;4953781;28;20436;-76
2022/02/14 03:43:46;;;;;;;10.68;6.75;;;;;;;6.16;44.99;101159.25;4952431;29;20046;-77
2022/02/14 03:46:30;;;;;;;;;;;;;;;6.13;45.05;101155.22;4957195;28;20058;-77
2022/02/14 03:49:15;;;;;;;15.52;7.75;;;;;;;6.16;44.74;101159.25;4934546;29;19915;-77
2022/02/14 03:52:00;;;;;;;7.40;5.28;;;;;;;6.23;45.53;101157.06;4934389;29;20050;-76
2022/02/14 03:54:44;;;;;;;9.07;5.32;;;;;;;6.20;45.71;101153.00;4937779;29;20129;-76
2022/02/14 03:57:29;;;;;;;13.25;5.90;;;;;;;6.11;45.88;101151.16;4938578;29;20042;-75
2022/02/14 04:00:15;;;;;;;9.83;5.90;;;;;;;6.03;45.86;101143.63;4954035;28;20054;-77
2022/02/14 04:02:59;;;;;;;16.05;7.40;;;;;;;6.16;45.26;101137.66;4953361;28;20290;-77
2022/02/14 04:05:44;;;;;;;10.53;5.73;;;;;;;6.25;46.20;101146.78;4953137;28;20059;-76
2022/02/14 04:08:29;;;;;;;9.98;6.50;;;;;;;6.26;45.45;101140.31;4953051;29;20058;-76
2022/02/14 04:11:14;;;;;;;12.27;6.07;;;;;;;6.26;45.44;101134.91;4950934;28;20054;-77
2022/02/14 04:13:59;;;;;;;10.75;5.57;;;;;;;6.39;45.45;101137.03;4955639;29;20086;-77
2022/02/14 04:16:44;;;;;;;14.10;6.50;;;;;;;6.40;46.25;101135.91;4954214;28;20047;-76
2022/02/14 04:19:28;;;;;;;13.63;6.25;;;;;;;6.35;45.67;101136.75;4953072;29;20055;-77
2022/02/14 04:22:13;;;;;;;11.52;6.30;;;;;;;6.38;45.67;101138.91;4953247;29;20050;-77
2022/02/14 04:24:58;;;;;;;8.98;5.78;;;;;;;6.41;47.02;101137.53;4948588;29;20058;-76
2022/02/14 04:27:43;;;;;;;8.23;5.00;;;;;;;6.38;46.26;101138.09;4952963;28;20054;-77
2022/02/14 04:30:29;;;;;;;8.10;4.95;;;;;;;6.36;46.51;101143.78;4952084;29;20055;-77
2022/02/14 04:33:14;;;;;;;10.07;7.40;;;;;;;6.55;45.99;101135.88;4952931;28;20050;-77
2022/02/14 04:35:59;;;;;;;10.80;6.68;;;;;;;6.51;45.83;101139.38;4952854;29;20147;-77
2022/02/14 04:38:43;;;;;;;12.13;6.88;;;;;;;6.51;46.43;101144.78;4952893;29;20050;-77
2022/02/14 04:41:28;;;;;;;6.50;4.82;;;;;;;6.56;45.36;101136.66;4953249;29;20046;-77
2022/02/14 04:44:13;;;;;;;8.77;5.93;;;;;;;6.74;45.42;101122.53;4952629;29;20050;-75
2022/02/14 04:46:58;;;;;;;;;;;;;;;6.72;44.55;101120.09;4953197;28;20054;-77
2022/02/14 04:49:43;;;;;;;10.05;6.30;;;;;;;6.70;44.55;101111.47;4942227;29;19914;-77
2022/02/14 04:52:28;;;;;;;10.52;6.75;;;;;;;6.63;44.97;101110.97;4953062;28;20054;-77
2022/02/14 04:55:13;;;;;;;15.93;6.50;;;;;;;6.51;45.16;101112.38;4955070;28;20046;-76
2022/02/14 04:57:58;;;;;;;11.93;6.55;;;;;;;6.41;45.11;101111.34;4956213;28;20054;-77
2022/02/14 05:00:43;;;;;;;8.07;5.22;;;;;;;6.53;44.85;101108.31;4950723;29;20047;-77
2022/02/14 05:03:28;;;;;;;8.18;5.05;;;;;;;6.41;45.40;101118.63;4956274;28;20058;-77
2022/02/14 05:06:12;;;;;;;17.20;8.07;;;;;;;6.44;46.04;101105.41;4953417;29;20416;-77
2022/02/14 05:08:57;;;;;;;7.53;5.30;;;;;;;6.51;45.79;101112.38;4950881;29;20042;-77
2022/02/14 05:11:42;;;;;;;17.08;7.47;;;;;;;6.68;45.50;101127.16;4950819;28;20051;-76
2022/02/14 05:14:28;;;;;;;12.65;7.43;;;;;;;6.64;45.16;101118.00;4954158;29;20050;-77
2022/02/14 05:17:15;;;;;;;12.25;7.28;;;;;;;6.70;44.87;101127.69;4956330;29;20046;-78
2022/02/14 05:20:00;;;;;;;10.57;6.50;;;;;;;6.56;45.67;101126.66;4950647;29;20066;-76
2022/02/14 05:22:45;;;;;;;14.77;6.60;;;;;;;6.65;46.12;101127.72;4955964;28;20050;-77
2022/02/14 05:25:29;;;;;;;7.60;5.60;;;;;;;6.80;44.72;101122.22;4955249;28;20416;-77
2022/02/14 05:28:13;;;;;;;9.33;5.23;;;;;;;6.73;44.77;101118.22;4955865;28;20051;-76
2022/02/14 05:30:58;;;;;;;15.27;5.67;;;;;;;6.75;44.53;101116.84;4955609;28;20073;-76
2022/02/14 05:33:43;;;;;;;16.63;6.30;;;;;;;6.82;44.14;101130.84;4955684;29;20286;-77
2022/02/14 05:36:27;;;;;;;9.35;6.22;;;;;;;6.82;44.29;101130.84;4956019;29;20050;-77
2022/02/14 05:39:12;;;;;;;8.52;5.15;;;;;;;6.74;43.89;101127.94;4955700;28;20066;-77
2022/02/14 05:41:57;;;;;;;8.52;5.35;;;;;;;6.76;45.12;101121.16;4955771;28;20057;-77
2022/02/14 05:44:43;;;;;;;8.55;5.00;;;;;;;6.79;44.71;101131.41;4955962;28;20043;-76
2022/02/14 05:47:30;;;;;;;9.98;6.57;;;;;;;6.67;44.59;101130.94;4955932;28;20050;-77
2022/02/14 05:50:14;;;;;;;14.30;6.50;;;;;;;6.68;45.87;101135.25;4951126;29;20515;-77
2022/02/14 05:52:59;;;;;;;11.27;4.63;;;;;;;6.81;45.01;101133.81;4956051;28;20069;-76
2022/02/14 05:55:44;;;;;;;10.07;5.70;;;;;;;6.83;45.01;101142.47;4941464;28;20057;-76
2022/02/14 05:58:29;;;;;;;8.60;4.60;;;;;;;6.89;44.68;101138.66;4949491;28;20062;-77
2022/02/14 06:01:15;;;;;;;13.73;5.03;;;;;;;6.80;45.02;101146.56;4955441;29;20054;-77
2022/02/14 06:03:59;;;;;;;14.27;5.70;;;;;;;6.85;44.52;101137.59;4947531;29;20058;-77
2022/02/14 06:06:44;;;;;;;9.55;5.40;;;;;;;6.81;44.80;101139.22;4949762;29;20102;-77
2022/02/14 06:09:29;;;;;;;16.67;6.65;;;;;;;6.94;45.19;101132.41;4955067;29;20067;-77
2022/02/14 06:12:14;;;;;;;14.63;6.35;;;;;;;6.97;43.93;101123.72;4955377;28;20524;-77
2022/02/14 06:15:00;;;;;;;16.73;6.15;;;;;;;6.94;44.00;101116.19;4954570;28;20070;-77
2022/02/14 06:17:45;;;;;;;13.35;6.80;;;;;;;6.96;44.33;101109.38;4935745;29;20066;-77
2022/02/14 06:20:30;;;;;;;9.27;5.68;;;;;;;6.96;44.09;101124.81;4945542;28;20070;-76
2022/02/14 06:23:15;;;;;;;;;;;;;;;6.87;45.37;101130.81;4951889;29;20530;-77
2022/02/14 06:26:02;;;;;;;47.20;8.50;;;;;;;6.74;45.30;101127.94;4948912;29;19919;-76
2022/02/14 06:28:47;;;;;;;12.63;7.40;;;;;;;6.94;44.92;101127.81;4949715;29;20058;-76
2022/02/14 06:31:32;;;;;;;17.75;6.60;;;;;;;6.67;45.83;101124.72;4957770;29;20054;-83
2022/02/14 06:34:17;;;;;;;15.40;5.72;;;;;;;6.08;47.20;101130.13;4950638;28;20077;-82
2022/02/14 06:37:02;;;;;;;24.77;6.83;;;;;;;5.50;47.58;101133.16;4944142;29;20051;-82
2022/02/14 06:39:47;;;;;;;14.85;8.90;;;;;;;5.39;48.55;101144.22;4959156;28;20514;-83
2022/02/14 06:42:31;;;;;;;10.68;6.10;;;;;;;5.20;49.41;101148.53;4976638;28;20054;-82
2022/02/14 06:45:17;;;;;;;14.00;7.05;;;;;;;5.39;48.63;101146.91;4959440;29;20050;-82
2022/02/14 06:48:04;;;;;;;14.30;8.93;;;;;;;5.29;49.47;101149.63;4959639;28;20050;-82
2022/02/14 06:50:49;;;;;;;13.55;7.72;;;;;;;5.15;50.24;101152.84;4958580;28;20057;-83
2022/02/14 06:53:34;;;;;;;15.55;6.75;;;;;;;5.29;50.04;101155.00;4962635;28;20058;-83
2022/02/14 06:56:19;;;;;;;24.98;7.03;;;;;;;5.16;50.22;101157.16;4960870;28;20058;-82
2022/02/14 06:59:04;;;;;;;33.83;7.65;;;;;;;5.34;50.48;101163.09;4956879;28;20055;-81
2022/02/14 07:01:49;;;;;;;15.55;7.00;;;;;;;5.47;50.37;101152.59;4948803;29;20054;-82
2022/02/14 07:04:34;;;;;;;14.13;7.25;;;;;;;5.60;50.21;101151.22;4949426;29;20042;-82
2022/02/14 07:07:19;;;;;;;25.92;9.40;;;;;;;5.64;50.01;101163.09;4949361;29;20051;-82
2022/02/14 07:10:04;;;;;;;15.90;8.30;;;;;;;5.43;51.16;101156.91;4953382;28;20046;-82
2022/02/14 07:12:49;;;;;;;18.85;8.77;;;;;;;5.46;50.95;101158.25;4948566;28;20050;-82
2022/02/14 07:15:34;;;;;;;12.98;7.60;;;;;;;5.54;50.73;101150.41;4950635;28;20539;-84
2022/02/14 07:18:19;;;;;;;29.63;8.32;;;;;;;5.82;49.97;101145.53;4950054;28;20066;-80
2022/02/14 07:21:04;;;;;;;28.50;9.35;;;;;;;5.67;50.34;101149.06;4955493;28;20116;-82
2022/02/14 07:23:50;;;;;;;24.75;9.27;;;;;;;5.73;50.28;101145.28;4960654;28;20046;-81
2022/02/14 07:26:35;;;;;;;20.70;8.75;;;;;;;5.88;49.97;101149.88;4958971;29;20417;-82
2022/02/14 07:29:20;;;;;;;13.77;7.28;;;;;;;5.76;50.85;101155.53;4956852;28;20444;-82
2022/02/14 07:32:06;;;;;;;10.88;7.53;;;;;;;5.45;49.91;101160.13;4970517;28;20054;-82
2022/02/14 07:34:51;;;;;;;;;;;;;;;5.25;50.25;101167.41;4971210;28;20416;-81
2022/02/14 07:37:36;;;;;;;26.02;8.82;;;;;;;5.15;50.99;101166.34;4969303;28;19914;-82
2022/02/14 07:40:21;;;;;;;24.98;10.68;;;;;;;5.31;51.88;101175.25;4956801;28;20531;-81
2022/02/14 07:43:05;;;;;;;21.10;7.85;;;;;;;5.18;50.81;101170.38;4959135;29;20409;-81
2022/02/14 07:45:50;;;;;;;15.68;8.40;;;;;;;5.10;51.62;101165.50;4956793;28;20054;-82
2022/02/14 07:48:35;;;;;;;20.10;8.75;;;;;;;5.08;52.28;101171.16;4966851;28;20050;-82
2022/02/14 07:51:21;;;;;;;24.63;9.57;;;;;;;5.24;52.46;101168.47;4955852;28;20542;-82
2022/02/14 07:54:07;;;;;;;21.25;11.25;;;;;;;5.42;53.30;101173.38;4968376;28;20058;-82
2022/02/14 07:56:51;;;;;;;15.45;8.48;;;;;;;5.53;53.43;101172.28;4965278;28;20035;-81
2022/02/14 07:59:36;;;;;;;14.63;8.30;;;;;;;5.58;52.78;101174.97;4975456;28;20526;-82
2022/02/14 08:02:21;;;;;;;15.55;7.95;;;;;;;5.65;52.48;101170.09;4979633;28;20333;-82
2022/02/14 08:05:07;;;;;;;13.88;8.85;;;;;;;5.70;52.81;101163.88;4978912;28;20065;-82
2022/02/14 08:07:52;;;;;;;28.98;11.32;;;;;;;5.62;52.50;101170.66;4970258;28;20049;-82
2022/02/14 08:10:36;;;;;;;17.77;7.40;;;;;;;5.80;52.06;101178.19;4972426;28;20420;-82
2022/02/14 08:13:21;;;;;;;89.50;25.85;;;;;;;5.77;52.27;101165.25;4963387;28;20054;-81
2022/02/14 08:16:06;;;;;;;16.80;9.02;;;;;;;5.82;53.05;101159.84;4958762;28;20044;-82
2022/02/14 08:18:50;;;;;;;20.25;7.80;;;;;;;5.86;53.99;101166.31;4952942;28;20038;-80
2022/02/14 08:21:35;;;;;;;18.30;9.97;;;;;;;5.82;55.01;101167.13;4967245;28;20074;-80
2022/02/14 08:24:20;;;;;;;31.88;10.25;;;;;;;6.06;54.66;101161.97;4975640;28;20293;-80
2022/02/14 08:27:05;;;;;;;42.65;10.75;;;;;;;6.28;53.31;101157.06;4975662;28;20043;-80
2022/02/14 08:29:52;;;;;;;26.52;10.75;;;;;;;6.74;52.60;101163.88;4979755;28;20058;-81
2022/02/14 08:32:36;;;;;;;43.60;17.77;;;;;;;6.92;51.53;101151.59;4979861;28;20050;-80
2022/02/14 08:35:22;;;;;;;21.38;10.35;;;;;;;7.15;51.07;101148.22;4980290;28;20046;-80
2022/02/14 08:38:07;;;;;;;26.60;10.35;;;;;;;7.28;50.46;101144.84;4970657;28;20518;-79
2022/02/14 08:40:52;;;;;;;23.73;13.55;;;;;;;7.36;50.46;101148.88;4968699;28;20046;-80
2022/02/14 08:43:36;;;;;;;40.38;12.60;;;;;;;6.99;51.60;101151.28;4970344;28;20051;-81
2022/02/14 08:46:22;;;;;;;35.85;9.40;;;;;;;7.28;51.99;101149.44;4971490;28;20050;-80
2022/02/14 08:49:08;;;;;;;27.10;11.55;;;;;;;7.17;51.30;101137.09;4979685;28;20053;-81
2022/02/14 08:51:53;;;;;;;30.37;12.83;;;;;;;7.15;51.32;101137.41;4969200;28;20050;-81
2022/02/14 08:54:38;;;;;;;36.80;12.75;;;;;;;7.40;50.50;101136.38;4971379;28;20767;-82
2022/02/14 08:57:24;;;;;;;25.88;9.05;;;;;;;7.44;50.62;101128.50;4970961;28;20047;-81
2022/02/14 09:00:09;;;;;;;23.80;9.48;;;;;;;7.54;49.90;101131.09;4961678;29;20535;-82
2022/02/14 09:02:54;;;;;;;42.05;14.30;;;;;;;7.67;49.94;101130.44;4959278;28;20408;-82
2022/02/14 09:05:39;;;;;;;33.17;11.45;;;;;;;7.74;49.24;101112.78;4960915;28;20448;-81
2022/02/14 09:08:25;;;;;;;29.25;11.82;;;;;;;7.61;49.80;101116.19;4951549;28;20047;-81
2022/02/14 09:11:10;;;;;;;37.80;14.48;;;;;;;7.16;50.71;101120.06;4967504;28;20424;-80
2022/02/14 09:13:55;;;;;;;41.38;13.93;;;;;;;7.37;50.66;101119.88;4941312;29;20489;-83
2022/02/14 09:16:40;;;;;;;21.42;9.35;;;;;;;7.24;49.93;101121.38;4941868;29;20047;-82
2022/02/14 09:19:25;;;;;;;35.33;11.77;;;;;;;7.16;50.77;101120.06;4940298;29;20055;-82
2022/02/14 09:22:10;;;;;;;25.70;10.30;;;;;;;6.95;50.48;101115.09;4927273;29;20059;-83
2022/02/14 09:24:55;;;;;;;18.88;10.05;;;;;;;7.02;50.79;101113.69;4925953;29;20627;-84
2022/02/14 09:27:40;;;;;;;24.95;11.32;;;;;;;6.94;51.24;101117.00;4940181;29;20058;-82
2022/02/14 09:30:24;;;;;;;27.03;14.80;;;;;;;6.88;51.75;101118.91;4941491;29;20058;-82
2022/02/14 09:33:09;;;;;;;25.90;12.82;;;;;;;7.03;51.03;101114.50;4939789;29;20055;-84
2022/02/14 09:35:54;;;;;;;40.88;13.70;;;;;;;7.25;50.51;101112.16;4932768;29;20044;-84
2022/02/14 09:38:40;;;;;;;19.50;11.68;;;;;;;7.17;49.95;101121.69;4945038;29;20059;-85
2022/02/14 09:41:28;;;;;;;21.48;10.63;;;;;;;7.30;50.26;101125.66;4939449;29;20044;-84
2022/02/14 09:44:13;;;;;;;64.30;13.88;;;;;;;7.49;49.87;101128.44;4940993;29;20054;-84
2022/02/14 09:46:59;;;;;;;17.35;7.25;;;;;;;7.49;49.14;101115.72;4930237;29;20060;-83
2022/02/14 09:49:45;;;;;;;17.63;8.90;;;;;;;7.46;49.32;101113.59;4954968;28;20425;-83
2022/02/14 09:52:30;;;;;;;11.38;6.43;;;;;;;7.63;48.99;101113.97;4957663;29;20054;-83
2022/02/14 09:55:16;;;;;;;22.45;9.13;;;;;;;7.68;49.68;101124.75;4959738;28;20050;-83
2022/02/14 09:58:01;;;;;;;19.35;9.70;;;;;;;7.64;49.80;101123.72;4954915;28;20051;-82
2022/02/14 10:00:46;;;;;;;12.98;6.97;;;;;;;7.75;49.35;101124.41;4946765;28;20050;-83
2022/02/14 10:03:30;;;;;;;13.77;6.63;;;;;;;7.72;48.30;101117.66;4964744;28;20063;-84
2022/02/14 10:06:25;;;;;;;13.80;6.88;;;;;;;7.82;49.16;101110.56;4964297;28;20054;-83
2022/02/14 10:09:15;;;;;;;17.10;7.57;;;;;;;7.69;48.62;101109.31;4958405;29;20054;-83
2022/02/14 10:12:11;;;;;;;9.40;5.93;;;;;;;7.62;46.99;101122.38;4953039;28;20057;-84
2022/02/14 10:15:02;;;;;;;8.40;5.80;;;;;;;7.55;47.82;101116.50;4959352;28;20046;-83
2022/02/14 10:17:49;;;;;;;11.07;6.18;;;;;;;7.77;48.17;101114.13;4959357;28;20058;-83
2022/02/14 10:20:34;;;;;;;11.25;6.32;;;;;;;7.99;47.81;101105.47;4959469;28;20420;-83
2022/02/14 10:23:19;;;;;;;9.68;5.82;;;;;;;8.15;46.52;101104.19;4953766;28;20062;-83
2022/02/14 10:26:04;;;;;;;10.02;5.07;;;;;;;8.01;47.55;101100.59;4957741;29;20094;-83
2022/02/14 10:28:49;;;;;;;14.02;5.47;;;;;;;7.95;47.73;101099.03;4958881;28;20527;-83
2022/02/14 10:31:48;;;;;;;16.17;6.80;;;;;;;8.23;46.80;101100.84;4965070;28;20065;-83
2022/02/14 10:34:38;;;;;;;15.27;7.95;;;;;;;8.38;47.24;101094.47;4965905;28;20066;-83
2022/02/14 10:37:43;;;;;;;15.43;7.72;;;;;;;8.00;46.66;101085.44;4971164;28;20413;-80
2022/02/14 10:40:38;;;;;;;11.30;6.68;;;;;;;8.04;47.61;101081.03;4956911;28;20042;-80
2022/02/14 10:43:25;;;;;;;14.63;6.53;;;;;;;8.51;46.26;101075.59;4969732;28;20050;-80
2022/02/14 10:46:22;;;;;;;9.15;6.72;;;;;;;8.21;46.70;101078.66;4957143;28;20054;-78
2022/02/14 10:49:09;;;;;;;11.43;6.50;;;;;;;8.15;46.37;101074.41;4960045;28;20046;-81
2022/02/14 10:52:01;;;;;;;11.70;6.70;;;;;;;8.06;47.38;101070.75;4942545;28;20067;-80
2022/02/14 10:54:46;;;;;;;11.50;7.22;;;;;;;8.21;47.26;101077.88;4979193;28;20050;-81
2022/02/14 10:57:33;;;;;;;20.60;8.37;;;;;;;8.34;47.18;101069.84;4968642;28;20049;-80
2022/02/14 11:00:30;;;;;;;18.02;8.10;;;;;;;8.34;46.70;101072.56;4925591;29;20286;-80
2022/02/14 11:03:16;;;;;;;15.95;8.27;;;;;;;8.39;47.14;101066.25;4938987;29;20047;-79
2022/02/14 11:06:01;;;;;;;20.83;7.80;;;;;;;8.56;47.89;101061.97;4940331;29;20167;-80
2022/02/14 11:08:46;;;;;;;7.35;5.13;;;;;;;8.58;48.06;101064.41;4939223;29;20059;-80
2022/02/14 11:11:35;;;;;;;14.95;7.05;;;;;;;8.17;48.22;101050.56;4942658;29;20054;-80
2022/02/14 11:14:21;;;;;;;19.65;8.30;;;;;;;8.64;49.51;101057.78;4946549;28;20058;-80
2022/02/14 11:17:07;;;;;;;14.07;7.75;;;;;;;8.47;47.63;101046.66;4960869;28;20050;-80
2022/02/14 11:19:55;;;;;;;10.68;7.75;;;;;;;8.54;47.74;101038.94;4941856;29;20062;-79
2022/02/14 11:22:48;;;;;;;13.35;7.60;;;;;;;8.50;48.16;101035.22;4953576;28;20051;-79
2022/02/14 11:25:46;;;;;;;10.65;7.72;;;;;;;8.90;47.23;101033.78;4954163;28;20050;-80
2022/02/14 11:28:56;;;;;;;12.80;7.80;;;;;;;8.39;47.30;101031.84;4960420;28;20046;-80
2022/02/14 11:31:40;;;;;;;10.52;7.68;;;;;;;8.53;47.04;101016.47;4956788;28;20046;-79
2022/02/14 11:35:20;;;;;;;10.82;6.88;;;;;;;8.63;47.53;101017.44;4964585;28;20050;-79
2022/02/14 11:38:06;;;;;;;11.75;7.68;;;;;;;9.11;46.86;101007.94;4973543;28;20042;-78
2022/02/14 11:40:52;;;;;;;14.93;8.80;;;;;;;8.87;47.09;101012.69;4978457;28;20447;-78
2022/02/14 11:43:38;;;;;;;14.93;9.07;;;;;;;9.01;47.09;101002.69;4973263;28;20062;-79
2022/02/14 11:46:27;;;;;;;12.65;8.73;;;;;;;8.91;48.30;101002.84;4974687;28;20407;-78
2022/02/14 11:49:15;;;;;;;24.15;10.85;;;;;;;9.00;49.01;100993.75;4974445;28;20053;-78
2022/02/14 11:52:00;;;;;;;17.17;8.82;;;;;;;8.96;48.55;100989.22;4966555;28;20043;-78
2022/02/14 11:54:47;;;;;;;9.50;6.47;;;;;;;8.93;47.12;100977.06;4950417;28;20062;-78
2022/02/14 11:57:49;;;;;;;14.63;8.93;;;;;;;9.17;45.36;100979.63;4955278;28;20055;-78
2022/02/14 12:00:34;;;;;;;14.00;8.50;;;;;;;9.26;44.91;100974.28;4973717;28;20054;-78
2022/02/14 12:03:18;;;;;;;11.05;6.60;;;;;;;9.29;45.01;100968.28;4974181;28;20049;-78
2022/02/14 12:06:04;;;;;;;10.90;7.65;;;;;;;9.24;44.24;100961.06;4981203;28;20058;-78
2022/02/14 12:09:01;;;;;;;11.07;7.18;;;;;;;9.67;43.63;100958.03;4978401;28;20522;-79
2022/02/14 12:11:49;;;;;;;13.77;8.38;;;;;;;9.54;44.86;100954.22;4978580;28;20515;-78
2022/02/14 12:14:33;;;;;;;12.52;8.15;;;;;;;9.54;44.22;100956.13;4979091;28;20049;-78
2022/02/14 12:20:47;;;;;;;18.05;9.43;;;;;;;9.81;43.60;100946.03;4951321;28;20046;-78
2022/02/14 12:23:41;;;;;;;11.32;8.00;;;;;;;9.79;44.17;100936.59;4946135;29;20523;-78
2022/02/14 12:26:30;;;;;;;17.52;9.30;;;;;;;9.67;43.46;100947.16;4959271;29;20042;-78
2022/02/14 12:29:33;;;;;;;14.27;8.35;;;;;;;9.49;43.91;100942.66;4952977;28;20051;-79
2022/02/14 12:32:18;;;;;;;12.00;8.10;;;;;;;9.78;42.88;100933.06;4959493;29;20050;-78
2022/02/14 12:35:03;;;;;;;12.73;6.68;;;;;;;10.01;43.29;100927.69;4959439;29;20511;-78
2022/02/14 12:37:51;;;;;;;8.63;6.25;;;;;;;10.31;42.12;100920.78;4959219;29;20291;-78
2022/02/14 12:40:54;;;;;;;17.13;8.10;;;;;;;11.11;39.14;100907.03;4958110;29;20385;-78
2022/02/14 12:43:38;;;;;;;15.07;9.23;;;;;;;10.91;39.37;100905.66;4958635;29;20055;-78
2022/02/14 12:46:24;;;;;;;15.50;7.57;;;;;;;10.90;37.58;100908.69;4959964;28;20043;-78
2022/02/14 12:49:08;;;;;;;14.98;8.05;;;;;;;10.50;39.54;100907.81;4958523;29;20047;-78
2022/02/14 12:52:08;;;;;;;15.15;6.22;;;;;;;10.41;38.63;100901.53;4962119;28;20066;-78
2022/02/14 12:54:55;;;;;;;58.50;10.57;;;;;;;10.15;39.77;100904.81;4940282;29;20044;-78
2022/02/14 12:57:50;;;;;;;17.17;7.68;;;;;;;10.21;40.72;100903.59;4955877;28;20043;-78